sensor_id;sensor_type;location;lat;lon;timestamp;pressure;altitude;pressure_sealevel;temperature;humidity
19096;BME280;9680;52.520;13.332;2023-11-21T00:01:04;100568.25;;;8.01;100.00
19096;BME280;9680;52.520;13.332;2023-11-21T00:03:34;100568.38;;;7.97;100.00
19096;BME280;9680;52.520;13.332;2023-11-21T00:06:01;100572.06;;;7.90;100.00
19096;BME280;9680;52.520;13.332;2023-11-21T00:08:28;100567.00;;;7.85;100.00
19096;BME280;9680;52.520;13.332;2023-11-21T00:10:55;100575.75;;;7.81;100.00
19096;BME280;9680;52.520;13.332;2023-11-21T00:13:21;100580.22;;;7.77;100.00
19096;BME280;9680;52.520;13.332;2023-11-21T00:15:48;100585.69;;;7.66;100.00
19096;BME280;9680;52.520;13.332;2023-11-21T00:18:16;100592.78;;;7.60;100.00
19096;BME280;9680;52.520;13.332;2023-11-21T00:20:43;100593.63;;;7.60;100.00
19096;BME280;9680;52.520;13.332;2023-11-21T00:23:10;100593.81;;;7.54;100.00
19096;BME280;9680;52.520;13.332;2023-11-21T00:25:37;100601.50;;;7.57;100.00
19096;BME280;9680;52.520;13.332;2023-11-21T00:28:05;100592.84;;;7.58;99.70
19096;BME280;9680;52.520;13.332;2023-11-21T00:30:32;100596.53;;;7.49;98.82
19096;BME280;9680;52.520;13.332;2023-11-21T00:32:59;100600.97;;;7.44;98.88
19096;BME280;9680;52.520;13.332;2023-11-21T00:35:27;100605.50;;;7.37;97.75
19096;BME280;9680;52.520;13.332;2023-11-21T00:38:00;100610.94;;;7.26;97.38
19096;BME280;9680;52.520;13.332;2023-11-21T00:40:28;100611.13;;;7.20;96.86
19096;BME280;9680;52.520;13.332;2023-11-21T00:42:56;100620.78;;;7.13;97.29
19096;BME280;9680;52.520;13.332;2023-11-21T00:45:23;100615.66;;;7.12;97.17
19096;BME280;9680;52.520;13.332;2023-11-21T00:47:51;100617.44;;;7.08;97.09
19096;BME280;9680;52.520;13.332;2023-11-21T00:50:18;100623.50;;;7.09;97.19
19096;BME280;9680;52.520;13.332;2023-11-21T00:52:46;100627.72;;;7.13;97.50
19096;BME280;9680;52.520;13.332;2023-11-21T00:55:12;100623.25;;;7.18;97.22
19096;BME280;9680;52.520;13.332;2023-11-21T00:57:39;100625.84;;;7.18;95.82
19096;BME280;9680;52.520;13.332;2023-11-21T01:00:07;100632.75;;;7.18;95.64
19096;BME280;9680;52.520;13.332;2023-11-21T01:02:38;100632.81;;;7.16;95.11
19096;BME280;9680;52.520;13.332;2023-11-21T01:05:06;100642.44;;;7.11;94.53
19096;BME280;9680;52.520;13.332;2023-11-21T01:07:34;100632.41;;;6.97;94.30
19096;BME280;9680;52.520;13.332;2023-11-21T01:10:04;100636.84;;;6.92;94.73
19096;BME280;9680;52.520;13.332;2023-11-21T01:12:33;100637.78;;;6.89;95.42
19096;BME280;9680;52.520;13.332;2023-11-21T01:15:00;100654.03;;;6.94;95.41
19096;BME280;9680;52.520;13.332;2023-11-21T01:17:27;100654.31;;;6.83;95.46
19096;BME280;9680;52.520;13.332;2023-11-21T01:19:54;100654.25;;;6.87;95.95
19096;BME280;9680;52.520;13.332;2023-11-21T01:22:21;100657.66;;;6.89;96.51
19096;BME280;9680;52.520;13.332;2023-11-21T01:24:51;100658.31;;;6.97;96.76
19096;BME280;9680;52.520;13.332;2023-11-21T01:27:19;100663.56;;;6.94;96.16
19096;BME280;9680;52.520;13.332;2023-11-21T01:29:46;100667.78;;;6.98;96.71
19096;BME280;9680;52.520;13.332;2023-11-21T01:32:13;100672.00;;;7.02;96.46
19096;BME280;9680;52.520;13.332;2023-11-21T01:34:39;100673.69;;;7.03;96.24
19096;BME280;9680;52.520;13.332;2023-11-21T01:37:06;100672.06;;;6.99;96.04
19096;BME280;9680;52.520;13.332;2023-11-21T01:39:33;100675.47;;;7.01;96.37
19096;BME280;9680;52.520;13.332;2023-11-21T01:42:00;100669.47;;;7.01;94.66
19096;BME280;9680;52.520;13.332;2023-11-21T01:44:28;100670.69;;;6.85;93.89
19096;BME280;9680;52.520;13.332;2023-11-21T01:46:56;100677.69;;;6.80;94.19
19096;BME280;9680;52.520;13.332;2023-11-21T01:49:24;100676.84;;;6.80;94.34
19096;BME280;9680;52.520;13.332;2023-11-21T01:51:51;100685.50;;;6.79;94.23
19096;BME280;9680;52.520;13.332;2023-11-21T01:54:18;100691.63;;;6.75;94.52
19096;BME280;9680;52.520;13.332;2023-11-21T01:56:46;100691.53;;;6.79;94.90
19096;BME280;9680;52.520;13.332;2023-11-21T01:59:18;100698.56;;;6.74;93.74
19096;BME280;9680;52.520;13.332;2023-11-21T02:01:47;100693.63;;;6.62;93.53
19096;BME280;9680;52.520;13.332;2023-11-21T02:04:15;100696.34;;;6.57;94.38
19096;BME280;9680;52.520;13.332;2023-11-21T02:06:42;100698.84;;;6.60;94.90
19096;BME280;9680;52.520;13.332;2023-11-21T02:09:10;100696.19;;;6.65;93.91
19096;BME280;9680;52.520;13.332;2023-11-21T02:11:40;100703.97;;;6.63;94.31
19096;BME280;9680;52.520;13.332;2023-11-21T02:14:07;100711.75;;;6.62;94.20
19096;BME280;9680;52.520;13.332;2023-11-21T02:16:35;100709.13;;;6.65;94.70
19096;BME280;9680;52.520;13.332;2023-11-21T02:19:05;100704.78;;;6.65;94.17
19096;BME280;9680;52.520;13.332;2023-11-21T02:21:35;100710.81;;;6.66;94.22
19096;BME280;9680;52.520;13.332;2023-11-21T02:24:08;100707.41;;;6.64;93.47
19096;BME280;9680;52.520;13.332;2023-11-21T02:26:35;100706.63;;;6.60;93.61
19096;BME280;9680;52.520;13.332;2023-11-21T02:29:02;100710.84;;;6.64;93.84
19096;BME280;9680;52.520;13.332;2023-11-21T02:31:30;100718.66;;;6.63;93.13
19096;BME280;9680;52.520;13.332;2023-11-21T02:33:58;100713.72;;;6.52;93.48
19096;BME280;9680;52.520;13.332;2023-11-21T02:36:25;100721.41;;;6.55;94.25
19096;BME280;9680;52.520;13.332;2023-11-21T02:38:51;100718.91;;;6.50;94.17
19096;BME280;9680;52.520;13.332;2023-11-21T02:41:19;100723.25;;;6.50;94.71
19096;BME280;9680;52.520;13.332;2023-11-21T02:43:46;100726.72;;;6.47;94.74
19096;BME280;9680;52.520;13.332;2023-11-21T02:46:13;100721.59;;;6.46;95.02
19096;BME280;9680;52.520;13.332;2023-11-21T02:48:40;100720.72;;;6.47;95.04
19096;BME280;9680;52.520;13.332;2023-11-21T02:51:06;100722.38;;;6.49;94.51
19096;BME280;9680;52.520;13.332;2023-11-21T02:53:33;100725.09;;;6.43;94.31
19096;BME280;9680;52.520;13.332;2023-11-21T02:56:01;100726.72;;;6.47;94.65
19096;BME280;9680;52.520;13.332;2023-11-21T02:58:29;100727.63;;;6.46;94.48
19096;BME280;9680;52.520;13.332;2023-11-21T03:00:56;100722.44;;;6.46;94.54
19096;BME280;9680;52.520;13.332;2023-11-21T03:03:23;100727.53;;;6.49;93.76
19096;BME280;9680;52.520;13.332;2023-11-21T03:05:50;100738.78;;;6.48;93.12
19096;BME280;9680;52.520;13.332;2023-11-21T03:08:18;100745.78;;;6.43;92.54
19096;BME280;9680;52.520;13.332;2023-11-21T03:10:45;100734.72;;;6.36;93.12
19096;BME280;9680;52.520;13.332;2023-11-21T03:13:12;100733.72;;;6.44;92.98
19096;BME280;9680;52.520;13.332;2023-11-21T03:15:40;100751.03;;;6.40;92.28
19096;BME280;9680;52.520;13.332;2023-11-21T03:18:08;100752.97;;;6.30;92.33
19096;BME280;9680;52.520;13.332;2023-11-21T03:20:35;100750.53;;;6.22;92.48
19096;BME280;9680;52.520;13.332;2023-11-21T03:23:01;100744.59;;;6.16;92.66
19096;BME280;9680;52.520;13.332;2023-11-21T03:25:28;100753.25;;;6.15;93.03
19096;BME280;9680;52.520;13.332;2023-11-21T03:27:56;100758.38;;;6.18;93.27
19096;BME280;9680;52.520;13.332;2023-11-21T03:30:23;100764.34;;;6.20;93.42
19096;BME280;9680;52.520;13.332;2023-11-21T03:32:51;100775.56;;;6.20;92.84
19096;BME280;9680;52.520;13.332;2023-11-21T03:35:18;100771.34;;;6.16;92.43
19096;BME280;9680;52.520;13.332;2023-11-21T03:37:46;100778.34;;;6.09;93.02
19096;BME280;9680;52.520;13.332;2023-11-21T03:40:13;100782.66;;;6.10;93.23
19096;BME280;9680;52.520;13.332;2023-11-21T03:42:40;100782.59;;;6.14;93.14
19096;BME280;9680;52.520;13.332;2023-11-21T03:45:08;100790.28;;;6.18;92.48
19096;BME280;9680;52.520;13.332;2023-11-21T03:47:35;100787.75;;;6.14;91.44
19096;BME280;9680;52.520;13.332;2023-11-21T03:50:04;100787.81;;;6.10;91.47
19096;BME280;9680;52.520;13.332;2023-11-21T03:52:31;100799.75;;;6.18;90.89
19096;BME280;9680;52.520;13.332;2023-11-21T03:55:00;100796.47;;;6.09;90.44
19096;BME280;9680;52.520;13.332;2023-11-21T03:57:27;100799.09;;;6.06;90.54
19096;BME280;9680;52.520;13.332;2023-11-21T03:59:54;100803.31;;;6.12;91.10
19096;BME280;9680;52.520;13.332;2023-11-21T04:02:21;100794.69;;;6.11;89.98
19096;BME280;9680;52.520;13.332;2023-11-21T04:04:48;100804.16;;;6.12;90.50
19096;BME280;9680;52.520;13.332;2023-11-21T04:07:16;100816.28;;;6.10;90.15
19096;BME280;9680;52.520;13.332;2023-11-21T04:09:43;100811.91;;;6.12;90.57
19096;BME280;9680;52.520;13.332;2023-11-21T04:12:10;100816.16;;;6.18;90.18
19096;BME280;9680;52.520;13.332;2023-11-21T04:14:36;100816.22;;;6.14;89.86
19096;BME280;9680;52.520;13.332;2023-11-21T04:17:03;100823.91;;;6.17;89.95
19096;BME280;9680;52.520;13.332;2023-11-21T04:19:30;100825.63;;;6.18;89.35
19096;BME280;9680;52.520;13.332;2023-11-21T04:21:57;100828.19;;;6.19;89.01
19096;BME280;9680;52.520;13.332;2023-11-21T04:24:25;100836.00;;;6.16;89.00
19096;BME280;9680;52.520;13.332;2023-11-21T04:26:52;100829.97;;;6.16;89.11
19096;BME280;9680;52.520;13.332;2023-11-21T04:29:19;100835.00;;;6.23;89.13
19096;BME280;9680;52.520;13.332;2023-11-21T04:31:46;100837.66;;;6.20;87.93
19096;BME280;9680;52.520;13.332;2023-11-21T04:34:14;100829.97;;;6.16;88.04
19096;BME280;9680;52.520;13.332;2023-11-21T04:36:41;100834.25;;;6.18;88.48
19096;BME280;9680;52.520;13.332;2023-11-21T04:39:07;100835.91;;;6.22;88.05
19096;BME280;9680;52.520;13.332;2023-11-21T04:41:36;100842.00;;;6.18;87.47
19096;BME280;9680;52.520;13.332;2023-11-21T04:44:05;100844.72;;;6.12;87.68
19096;BME280;9680;52.520;13.332;2023-11-21T04:46:32;100855.88;;;6.14;87.58
19096;BME280;9680;52.520;13.332;2023-11-21T04:48:58;100856.66;;;6.19;87.56
19096;BME280;9680;52.520;13.332;2023-11-21T04:51:25;100850.59;;;6.20;87.04
19096;BME280;9680;52.520;13.332;2023-11-21T04:53:52;100854.88;;;6.21;87.88
19096;BME280;9680;52.520;13.332;2023-11-21T04:56:19;100857.38;;;6.26;87.45
19096;BME280;9680;52.520;13.332;2023-11-21T04:58:47;100852.34;;;6.18;87.41
19096;BME280;9680;52.520;13.332;2023-11-21T05:01:14;100859.19;;;6.22;87.72
19096;BME280;9680;52.520;13.332;2023-11-21T05:03:41;100859.28;;;6.16;86.95
19096;BME280;9680;52.520;13.332;2023-11-21T05:06:09;100870.53;;;6.14;86.27
19096;BME280;9680;52.520;13.332;2023-11-21T05:08:36;100875.00;;;6.05;85.93
19096;BME280;9680;52.520;13.332;2023-11-21T05:11:03;100872.41;;;6.05;86.25
19096;BME280;9680;52.520;13.332;2023-11-21T05:13:34;100879.31;;;6.05;85.75
19096;BME280;9680;52.520;13.332;2023-11-21T05:16:02;100882.81;;;6.02;85.66
19096;BME280;9680;52.520;13.332;2023-11-21T05:18:31;100881.09;;;6.01;85.74
19096;BME280;9680;52.520;13.332;2023-11-21T05:20:58;100891.44;;;6.01;85.40
19096;BME280;9680;52.520;13.332;2023-11-21T05:23:24;100894.09;;;5.96;85.63
19096;BME280;9680;52.520;13.332;2023-11-21T05:25:51;100898.38;;;5.97;85.56
19096;BME280;9680;52.520;13.332;2023-11-21T05:28:18;100897.56;;;5.94;85.15
19096;BME280;9680;52.520;13.332;2023-11-21T05:30:45;100904.50;;;5.92;85.31
19096;BME280;9680;52.520;13.332;2023-11-21T05:33:13;100900.22;;;5.89;85.02
19096;BME280;9680;52.520;13.332;2023-11-21T05:35:40;100894.16;;;5.90;85.26
19096;BME280;9680;52.520;13.332;2023-11-21T05:38:06;100902.78;;;5.91;85.45
19096;BME280;9680;52.520;13.332;2023-11-21T05:40:33;100911.31;;;5.97;85.12
19096;BME280;9680;52.520;13.332;2023-11-21T05:43:00;100914.00;;;5.88;84.49
19096;BME280;9680;52.520;13.332;2023-11-21T05:45:27;100914.06;;;5.85;84.62
19096;BME280;9680;52.520;13.332;2023-11-21T05:47:54;100926.16;;;5.83;84.67
19096;BME280;9680;52.520;13.332;2023-11-21T05:50:22;100927.91;;;5.81;84.06
19096;BME280;9680;52.520;13.332;2023-11-21T05:52:49;100927.94;;;5.79;84.36
19096;BME280;9680;52.520;13.332;2023-11-21T05:55:16;100933.13;;;5.79;84.84
19096;BME280;9680;52.520;13.332;2023-11-21T05:57:43;100934.78;;;5.82;85.10
19096;BME280;9680;52.520;13.332;2023-11-21T06:00:12;100934.75;;;5.87;85.05
19096;BME280;9680;52.520;13.332;2023-11-21T06:02:44;100930.44;;;5.86;84.04
19096;BME280;9680;52.520;13.332;2023-11-21T06:05:11;100956.41;;;5.78;83.74
19096;BME280;9680;52.520;13.332;2023-11-21T06:07:39;100943.59;;;5.70;83.69
19096;BME280;9680;52.520;13.332;2023-11-21T06:10:07;100952.25;;;5.69;84.17
19096;BME280;9680;52.520;13.332;2023-11-21T06:12:36;100958.28;;;5.68;83.35
19096;BME280;9680;52.520;13.332;2023-11-21T06:15:03;100960.91;;;5.65;83.58
19096;BME280;9680;52.520;13.332;2023-11-21T06:17:31;100960.91;;;5.65;83.61
19096;BME280;9680;52.520;13.332;2023-11-21T06:19:58;100969.50;;;5.65;83.50
19096;BME280;9680;52.520;13.332;2023-11-21T06:22:26;100964.28;;;5.70;83.17
19096;BME280;9680;52.520;13.332;2023-11-21T06:24:54;100978.13;;;5.66;82.87
19096;BME280;9680;52.520;13.332;2023-11-21T06:27:21;100977.31;;;5.62;83.26
19096;BME280;9680;52.520;13.332;2023-11-21T06:29:49;100985.06;;;5.61;83.18
19096;BME280;9680;52.520;13.332;2023-11-21T06:32:17;100982.47;;;5.62;82.85
19096;BME280;9680;52.520;13.332;2023-11-21T06:34:45;100996.22;;;5.63;83.02
19096;BME280;9680;52.520;13.332;2023-11-21T06:37:12;100997.94;;;5.65;83.09
19096;BME280;9680;52.520;13.332;2023-11-21T06:39:39;101009.19;;;5.60;82.61
19096;BME280;9680;52.520;13.332;2023-11-21T06:42:07;101010.94;;;5.58;82.88
19096;BME280;9680;52.520;13.332;2023-11-21T06:44:34;101014.38;;;5.60;82.79
19096;BME280;9680;52.520;13.332;2023-11-21T06:47:03;101016.94;;;5.60;82.32
19096;BME280;9680;52.520;13.332;2023-11-21T06:49:30;101017.81;;;5.59;82.57
19096;BME280;9680;52.520;13.332;2023-11-21T06:51:56;101024.72;;;5.60;82.86
19096;BME280;9680;52.520;13.332;2023-11-21T06:54:24;101025.53;;;5.62;82.26
19096;BME280;9680;52.520;13.332;2023-11-21T06:56:50;101019.56;;;5.58;82.59
19096;BME280;9680;52.520;13.332;2023-11-21T06:59:20;101023.00;;;5.60;82.19
19096;BME280;9680;52.520;13.332;2023-11-21T07:01:47;101026.41;;;5.64;82.13
19096;BME280;9680;52.520;13.332;2023-11-21T07:04:14;101029.88;;;5.60;81.58
19096;BME280;9680;52.520;13.332;2023-11-21T07:06:41;101025.63;;;5.56;81.53
19096;BME280;9680;52.520;13.332;2023-11-21T07:09:09;101030.00;;;5.50;81.48
19096;BME280;9680;52.520;13.332;2023-11-21T07:11:37;101027.44;;;5.49;81.97
19096;BME280;9680;52.520;13.332;2023-11-21T07:14:04;101033.44;;;5.51;81.99
19096;BME280;9680;52.520;13.332;2023-11-21T07:16:34;101033.41;;;5.52;81.56
19096;BME280;9680;52.520;13.332;2023-11-21T07:19:03;101038.59;;;5.52;81.87
19096;BME280;9680;52.520;13.332;2023-11-21T07:21:31;101041.97;;;5.58;82.00
19096;BME280;9680;52.520;13.332;2023-11-21T07:23:58;101041.09;;;5.59;82.16
19096;BME280;9680;52.520;13.332;2023-11-21T07:26:25;101032.41;;;5.64;81.88
19096;BME280;9680;52.520;13.332;2023-11-21T07:28:52;101037.59;;;5.64;81.29
19096;BME280;9680;52.520;13.332;2023-11-21T07:31:19;101037.59;;;5.64;81.01
19096;BME280;9680;52.520;13.332;2023-11-21T07:33:47;101039.34;;;5.64;80.89
19096;BME280;9680;52.520;13.332;2023-11-21T07:36:14;101049.69;;;5.62;79.74
19096;BME280;9680;52.520;13.332;2023-11-21T07:38:44;101046.38;;;5.51;80.66
19096;BME280;9680;52.520;13.332;2023-11-21T07:41:11;101054.97;;;5.53;80.71
19096;BME280;9680;52.520;13.332;2023-11-21T07:43:41;101060.13;;;5.53;81.51
19096;BME280;9680;52.520;13.332;2023-11-21T07:46:08;101063.50;;;5.57;79.98
19096;BME280;9680;52.520;13.332;2023-11-21T07:48:35;101055.88;;;5.47;80.30
19096;BME280;9680;52.520;13.332;2023-11-21T07:51:03;101062.78;;;5.45;80.45
19096;BME280;9680;52.520;13.332;2023-11-21T07:53:30;101060.19;;;5.47;80.50
19096;BME280;9680;52.520;13.332;2023-11-21T07:55:58;101062.78;;;5.45;80.99
19096;BME280;9680;52.520;13.332;2023-11-21T07:58:25;101061.91;;;5.46;80.81
19096;BME280;9680;52.520;13.332;2023-11-21T08:00:51;101068.75;;;5.50;81.11
19096;BME280;9680;52.520;13.332;2023-11-21T08:03:18;101071.31;;;5.53;80.69
19096;BME280;9680;52.520;13.332;2023-11-21T08:05:45;101079.09;;;5.52;80.38
19096;BME280;9680;52.520;13.332;2023-11-21T08:08:13;101084.22;;;5.53;80.14
19096;BME280;9680;52.520;13.332;2023-11-21T08:10:40;101093.84;;;5.44;80.27
19096;BME280;9680;52.520;13.332;2023-11-21T08:13:07;101090.31;;;5.49;80.49
19096;BME280;9680;52.520;13.332;2023-11-21T08:15:34;101093.78;;;5.45;80.83
19096;BME280;9680;52.520;13.332;2023-11-21T08:18:02;101101.63;;;5.41;80.88
19096;BME280;9680;52.520;13.332;2023-11-21T08:20:30;101098.09;;;5.46;81.30
19096;BME280;9680;52.520;13.332;2023-11-21T08:22:56;101094.59;;;5.52;81.42
19096;BME280;9680;52.520;13.332;2023-11-21T08:25:25;101100.53;;;5.59;81.07
19096;BME280;9680;52.520;13.332;2023-11-21T08:27:52;101102.28;;;5.57;81.01
19096;BME280;9680;52.520;13.332;2023-11-21T08:30:19;101105.75;;;5.56;81.38
19096;BME280;9680;52.520;13.332;2023-11-21T08:32:46;101107.50;;;5.53;81.28
19096;BME280;9680;52.520;13.332;2023-11-21T08:35:13;101109.31;;;5.45;81.23
19096;BME280;9680;52.520;13.332;2023-11-21T08:37:41;101109.28;;;5.48;81.22
19096;BME280;9680;52.520;13.332;2023-11-21T08:40:09;101111.88;;;5.47;81.25
19096;BME280;9680;52.520;13.332;2023-11-21T08:42:39;101119.59;;;5.48;81.00
19096;BME280;9680;52.520;13.332;2023-11-21T08:45:07;101117.94;;;5.46;80.87
19096;BME280;9680;52.520;13.332;2023-11-21T08:47:34;101124.03;;;5.38;81.21
19096;BME280;9680;52.520;13.332;2023-11-21T08:50:02;101127.44;;;5.41;81.65
19096;BME280;9680;52.520;13.332;2023-11-21T08:52:28;101134.28;;;5.48;81.32
19096;BME280;9680;52.520;13.332;2023-11-21T08:54:55;101135.94;;;5.52;81.63
19096;BME280;9680;52.520;13.332;2023-11-21T08:57:22;101136.72;;;5.59;81.36
19096;BME280;9680;52.520;13.332;2023-11-21T08:59:50;101133.28;;;5.58;80.77
19096;BME280;9680;52.520;13.332;2023-11-21T09:02:20;101129.91;;;5.51;80.85
19096;BME280;9680;52.520;13.332;2023-11-21T09:04:48;101141.13;;;5.50;81.36
19096;BME280;9680;52.520;13.332;2023-11-21T09:07:16;101154.88;;;5.52;80.88
19096;BME280;9680;52.520;13.332;2023-11-21T09:09:44;101152.41;;;5.40;80.82
19096;BME280;9680;52.520;13.332;2023-11-21T09:12:11;101151.63;;;5.35;81.11
19096;BME280;9680;52.520;13.332;2023-11-21T09:14:37;101155.91;;;5.37;81.55
19096;BME280;9680;52.520;13.332;2023-11-21T09:17:06;101166.19;;;5.44;82.36
19096;BME280;9680;52.520;13.332;2023-11-21T09:19:36;101174.75;;;5.49;81.29
19096;BME280;9680;52.520;13.332;2023-11-21T09:22:03;101178.19;;;5.46;81.38
19096;BME280;9680;52.520;13.332;2023-11-21T09:24:30;101174.75;;;5.49;81.80
19096;BME280;9680;52.520;13.332;2023-11-21T09:26:57;101184.16;;;5.54;80.76
19096;BME280;9680;52.520;13.332;2023-11-21T09:29:25;101183.34;;;5.49;80.81
19096;BME280;9680;52.520;13.332;2023-11-21T09:31:52;101186.78;;;5.48;80.84
19096;BME280;9680;52.520;13.332;2023-11-21T09:34:22;101186.75;;;5.53;80.98
19096;BME280;9680;52.520;13.332;2023-11-21T09:36:49;101189.41;;;5.47;80.28
19096;BME280;9680;52.520;13.332;2023-11-21T09:39:16;101201.53;;;5.38;80.15
19096;BME280;9680;52.520;13.332;2023-11-21T09:41:49;101210.97;;;5.43;80.62
19096;BME280;9680;52.520;13.332;2023-11-21T09:44:32;101204.91;;;5.45;80.26
19096;BME280;9680;52.520;13.332;2023-11-21T09:47:02;101196.31;;;5.45;79.84
19096;BME280;9680;52.520;13.332;2023-11-21T09:49:32;101201.47;;;5.46;80.16
19096;BME280;9680;52.520;13.332;2023-11-21T09:52:01;101209.19;;;5.49;80.55
19096;BME280;9680;52.520;13.332;2023-11-21T09:54:30;101198.81;;;5.54;80.53
19096;BME280;9680;52.520;13.332;2023-11-21T09:56:59;101215.16;;;5.56;80.30
19096;BME280;9680;52.520;13.332;2023-11-21T09:59:30;101216.94;;;5.51;80.23
19096;BME280;9680;52.520;13.332;2023-11-21T10:01:59;101214.38;;;5.46;80.50
19096;BME280;9680;52.520;13.332;2023-11-21T10:04:27;101217.00;;;5.43;80.92
19096;BME280;9680;52.520;13.332;2023-11-21T10:06:55;101217.88;;;5.44;81.58
19096;BME280;9680;52.520;13.332;2023-11-21T10:09:24;101219.59;;;5.40;81.38
19096;BME280;9680;52.520;13.332;2023-11-21T10:11:52;101229.97;;;5.38;81.18
19096;BME280;9680;52.520;13.332;2023-11-21T10:14:24;101223.19;;;5.22;80.99
19096;BME280;9680;52.520;13.332;2023-11-21T10:16:55;101228.41;;;5.17;81.58
19096;BME280;9680;52.520;13.332;2023-11-21T10:19:23;101232.69;;;5.20;81.73
19096;BME280;9680;52.520;13.332;2023-11-21T10:21:51;101221.56;;;5.10;82.14
19096;BME280;9680;52.520;13.332;2023-11-21T10:24:19;101231.03;;;5.09;82.68
19096;BME280;9680;52.520;13.332;2023-11-21T10:26:46;101228.41;;;5.17;82.91
19096;BME280;9680;52.520;13.332;2023-11-21T10:29:14;101231.81;;;5.22;82.52
19096;BME280;9680;52.520;13.332;2023-11-21T10:31:42;101232.63;;;5.26;82.30
19096;BME280;9680;52.520;13.332;2023-11-21T10:34:14;101242.19;;;5.16;82.07
19096;BME280;9680;52.520;13.332;2023-11-21T10:36:41;101237.09;;;5.07;82.84
19096;BME280;9680;52.520;13.332;2023-11-21T10:39:08;101246.56;;;5.08;83.78
19096;BME280;9680;52.520;13.332;2023-11-21T10:41:37;101252.53;;;5.15;83.77
19096;BME280;9680;52.520;13.332;2023-11-21T10:44:05;101244.75;;;5.18;83.29
19096;BME280;9680;52.520;13.332;2023-11-21T10:46:34;101249.13;;;5.08;83.59
19096;BME280;9680;52.520;13.332;2023-11-21T10:49:01;101254.28;;;5.09;84.02
19096;BME280;9680;52.520;13.332;2023-11-21T10:51:28;101251.66;;;5.13;84.13
19096;BME280;9680;52.520;13.332;2023-11-21T10:53:55;101260.28;;;5.16;84.35
19096;BME280;9680;52.520;13.332;2023-11-21T10:56:23;101261.13;;;5.18;84.54
19096;BME280;9680;52.520;13.332;2023-11-21T10:58:52;101262.03;;;5.09;83.58
19096;BME280;9680;52.520;13.332;2023-11-21T11:01:19;101265.53;;;4.99;84.31
19096;BME280;9680;52.520;13.332;2023-11-21T11:03:47;101269.03;;;4.92;85.13
19096;BME280;9680;52.520;13.332;2023-11-21T11:06:15;101264.69;;;4.99;85.63
19096;BME280;9680;52.520;13.332;2023-11-21T11:08:44;101268.94;;;5.09;85.69
19096;BME280;9680;52.520;13.332;2023-11-21T11:11:11;101268.16;;;4.96;85.42
19096;BME280;9680;52.520;13.332;2023-11-21T11:13:43;101274.19;;;4.90;85.98
19096;BME280;9680;52.520;13.332;2023-11-21T11:16:13;101273.38;;;4.82;86.14
19096;BME280;9680;52.520;13.332;2023-11-21T11:18:42;101283.72;;;4.79;86.25
19096;BME280;9680;52.520;13.332;2023-11-21T11:21:18;101275.16;;;4.74;86.00
19096;BME280;9680;52.520;13.332;2023-11-21T11:26:46;101288.94;;;4.66;85.57
19096;BME280;9680;52.520;13.332;2023-11-21T11:29:21;101288.13;;;4.57;85.98
19096;BME280;9680;52.520;13.332;2023-11-21T11:31:57;101295.88;;;4.50;86.64
19096;BME280;9680;52.520;13.332;2023-11-21T11:34:31;101303.63;;;4.54;87.15
19096;BME280;9680;52.520;13.332;2023-11-21T11:37:02;101302.75;;;4.56;87.42
19096;BME280;9680;52.520;13.332;2023-11-21T11:39:30;101310.47;;;4.67;87.79
19096;BME280;9680;52.520;13.332;2023-11-21T11:41:58;101312.16;;;4.74;87.03
19096;BME280;9680;52.520;13.332;2023-11-21T11:44:48;101319.91;;;4.73;87.10
19096;BME280;9680;52.520;13.332;2023-11-21T11:47:20;101311.31;;;4.68;86.61
19096;BME280;9680;52.520;13.332;2023-11-21T11:49:58;101327.69;;;4.63;86.44
19096;BME280;9680;52.520;13.332;2023-11-21T11:52:37;101326.84;;;4.55;86.85
19096;BME280;9680;52.520;13.332;2023-11-21T11:55:06;101321.69;;;4.52;87.19
19096;BME280;9680;52.520;13.332;2023-11-21T11:57:35;101332.84;;;4.59;86.96
19096;BME280;9680;52.520;13.332;2023-11-21T12:00:15;101328.56;;;4.55;86.71
19096;BME280;9680;52.520;13.332;2023-11-21T12:02:48;101339.75;;;4.50;87.23
19096;BME280;9680;52.520;13.332;2023-11-21T12:05:16;101342.31;;;4.54;87.04
19096;BME280;9680;52.520;13.332;2023-11-21T12:07:45;101338.00;;;4.63;87.08
19096;BME280;9680;52.520;13.332;2023-11-21T12:10:16;101344.88;;;4.68;86.94
19096;BME280;9680;52.520;13.332;2023-11-21T12:12:44;101347.44;;;4.72;86.59
19096;BME280;9680;52.520;13.332;2023-11-21T12:15:11;101343.97;;;4.76;85.97
19096;BME280;9680;52.520;13.332;2023-11-21T12:17:38;101358.53;;;4.88;86.73
19096;BME280;9680;52.520;13.332;2023-11-21T12:20:08;101358.56;;;4.82;85.11
19096;BME280;9680;52.520;13.332;2023-11-21T12:22:42;101359.47;;;4.72;84.87
19096;BME280;9680;52.520;13.332;2023-11-21T12:25:09;101365.50;;;4.75;85.40
19096;BME280;9680;52.520;13.332;2023-11-21T12:27:42;101368.06;;;4.74;84.78
19096;BME280;9680;52.520;13.332;2023-11-21T12:30:10;101369.84;;;4.59;84.89
19096;BME280;9680;52.520;13.332;2023-11-21T12:32:39;101374.16;;;4.54;85.89
19096;BME280;9680;52.520;13.332;2023-11-21T12:35:09;101385.34;;;4.50;86.89
19096;BME280;9680;52.520;13.332;2023-11-21T12:37:36;101376.75;;;4.49;86.43
19096;BME280;9680;52.520;13.332;2023-11-21T12:40:05;101393.97;;;4.46;86.47
19096;BME280;9680;52.520;13.332;2023-11-21T12:42:33;101387.06;;;4.46;86.58
19096;BME280;9680;52.520;13.332;2023-11-21T12:45:18;101385.34;;;4.50;86.40
19096;BME280;9680;52.520;13.332;2023-11-21T12:47:46;101394.81;;;4.57;85.80
19096;BME280;9680;52.520;13.332;2023-11-21T12:50:15;101389.63;;;4.57;85.91
19096;BME280;9680;52.520;13.332;2023-11-21T12:52:42;101392.16;;;4.73;85.57
19096;BME280;9680;52.520;13.332;2023-11-21T12:55:16;101386.97;;;4.82;84.51
19096;BME280;9680;52.520;13.332;2023-11-21T12:57:44;101391.22;;;4.99;85.33
19096;BME280;9680;52.520;13.332;2023-11-21T13:00:15;101387.63;;;5.29;85.22
19096;BME280;9680;52.520;13.332;2023-11-21T13:02:55;101391.94;;;5.33;83.19
19096;BME280;9680;52.520;13.332;2023-11-21T13:05:26;101403.16;;;5.20;83.12
19096;BME280;9680;52.520;13.332;2023-11-21T13:07:53;101411.88;;;4.95;83.30